createdAt,value
2019-04-06T00:02:31.253Z,77.73
2019-04-06T00:05:00.092Z,67.73
2019-04-06T00:07:28.590Z,63.80
2019-04-06T00:09:57.086Z,74.47
2019-04-06T00:12:26.860Z,73.77
2019-04-06T00:14:55.343Z,66.97
2019-04-06T00:17:23.839Z,72.40
2019-04-06T00:19:52.317Z,69.07
2019-04-06T00:22:20.855Z,74.17
2019-04-06T00:24:49.677Z,74.40
2019-04-06T00:27:18.177Z,66.43
2019-04-06T00:29:46.654Z,70.97
2019-04-06T00:32:26.508Z,78.97
2019-04-06T00:34:54.990Z,75.90
2019-04-06T00:37:23.849Z,71.83
2019-04-06T00:39:52.602Z,69.27
2019-04-06T00:42:21.103Z,77.50
2019-04-06T00:44:49.907Z,69.83
2019-04-06T00:47:18.424Z,65.30
2019-04-06T00:49:47.261Z,76.00
2019-04-06T00:52:15.756Z,65.70
2019-04-06T00:54:44.247Z,75.77
2019-04-06T00:57:13.350Z,70.97
2019-04-06T00:59:42.090Z,76.03
2019-04-06T01:02:10.904Z,75.17
2019-04-06T01:04:39.420Z,71.93
2019-04-06T01:07:07.920Z,78.27
2019-04-06T01:09:36.716Z,76.87
2019-04-06T01:12:05.269Z,73.00
2019-04-06T01:14:33.759Z,80.47
2019-04-06T01:17:02.259Z,67.97
2019-04-06T01:19:30.734Z,73.37
2019-04-06T01:21:59.291Z,69.37
2019-04-06T01:24:27.775Z,76.77
2019-04-06T01:26:56.510Z,72.17
2019-04-06T01:29:24.993Z,72.80
2019-04-06T01:31:53.508Z,78.90
2019-04-06T01:34:22.272Z,79.13
2019-04-06T01:36:50.787Z,73.10
2019-04-06T01:39:19.275Z,79.10
2019-04-06T01:41:47.747Z,81.87
2019-04-06T01:44:16.250Z,75.67
2019-04-06T01:46:45.003Z,76.90
2019-04-06T01:49:13.499Z,77.17
2019-04-06T01:51:42.156Z,76.33
2019-04-06T01:54:10.572Z,72.00
2019-04-06T01:56:39.023Z,72.27
2019-04-06T01:59:07.615Z,68.57
2019-04-06T02:01:43.338Z,68.30
2019-04-06T02:04:11.838Z,75.87
2019-04-06T02:06:40.333Z,73.73
2019-04-06T02:09:08.813Z,75.60
2019-04-06T02:11:37.293Z,69.50
2019-04-06T02:14:05.774Z,75.63
2019-04-06T02:16:34.263Z,70.00
2019-04-06T02:19:02.826Z,70.30
2019-04-06T02:21:31.304Z,68.00
2019-04-06T02:23:59.793Z,72.80
2019-04-06T02:26:30.889Z,74.20
2019-04-06T02:28:58.615Z,74.17
2019-04-06T02:31:44.856Z,73.27
2019-04-06T02:34:31.492Z,74.37
2019-04-06T02:37:07.917Z,80.20
2019-04-06T02:39:42.741Z,76.00
2019-04-06T02:42:20.856Z,67.67
2019-04-06T02:44:49.326Z,68.17
2019-04-06T02:47:17.877Z,80.80
2019-04-06T02:49:46.346Z,73.90
2019-04-06T02:52:14.841Z,75.93
2019-04-06T02:54:43.291Z,77.73
2019-04-06T02:57:11.823Z,69.53
2019-04-06T02:59:40.301Z,71.17
2019-04-06T03:02:08.774Z,65.67
2019-04-06T03:04:37.271Z,71.13
2019-04-06T03:07:05.822Z,74.27
2019-04-06T03:09:34.391Z,69.30
2019-04-06T03:12:02.999Z,66.87
2019-04-06T03:14:31.746Z,63.13
2019-04-06T03:17:00.248Z,66.40
2019-04-06T03:19:28.738Z,68.97
2019-04-06T03:21:57.513Z,61.57
2019-04-06T03:24:26.002Z,69.73
2019-04-06T03:27:02.138Z,72.57
2019-04-06T03:29:24.692Z,76.40
2019-04-06T03:31:53.176Z,69.43
2019-04-06T03:34:22.522Z,70.93
2019-04-06T03:36:51.439Z,67.40
2019-04-06T03:39:19.993Z,61.47
2019-04-06T03:41:48.521Z,65.13
2019-04-06T03:44:16.994Z,62.97
2019-04-06T03:46:45.540Z,71.57
2019-04-06T03:49:14.181Z,64.30
2019-04-06T03:51:43.081Z,64.77
2019-04-06T03:54:11.563Z,60.63
2019-04-06T03:56:40.058Z,61.80
2019-04-06T03:59:08.556Z,62.80
2019-04-06T04:01:37.295Z,65.10
2019-04-06T04:04:05.785Z,64.57
2019-04-06T04:06:34.259Z,70.07
2019-04-06T04:09:03.164Z,72.83
2019-04-06T04:11:31.927Z,65.17
2019-04-06T04:14:00.745Z,67.93
2019-04-06T04:16:29.206Z,63.73
2019-04-06T04:18:57.712Z,72.23
2019-04-06T04:21:26.212Z,68.47
2019-04-06T04:23:54.701Z,78.47
2019-04-06T04:26:23.390Z,70.77
2019-04-06T04:28:51.926Z,69.50
2019-04-06T04:31:20.407Z,68.30
2019-04-06T04:33:49.179Z,76.13
2019-04-06T04:36:17.964Z,69.23
2019-04-06T04:38:46.749Z,70.33
2019-04-06T04:41:15.264Z,74.43
2019-04-06T04:43:43.730Z,65.33
2019-04-06T04:46:12.195Z,66.80
2019-04-06T04:48:40.953Z,68.27
2019-04-06T04:51:09.563Z,72.13
2019-04-06T04:53:38.032Z,70.97
2019-04-06T04:56:06.587Z,65.47
2019-04-06T04:58:35.072Z,71.77
2019-04-06T05:01:03.811Z,79.90
2019-04-06T05:03:32.294Z,76.63
2019-04-06T05:06:01.272Z,74.23
2019-04-06T05:08:29.718Z,79.30
2019-04-06T05:10:58.177Z,82.13
2019-04-06T05:13:26.695Z,77.83
2019-04-06T05:16:14.866Z,79.60
2019-04-06T05:18:43.585Z,71.97
2019-04-06T05:21:12.229Z,75.20
2019-04-06T05:23:40.875Z,68.23
2019-04-06T05:26:09.576Z,81.33
2019-04-06T05:28:38.061Z,80.67
2019-04-06T05:31:06.559Z,78.43
2019-04-06T05:33:35.397Z,86.03
2019-04-06T05:36:04.218Z,72.23
2019-04-06T05:38:32.690Z,80.87
2019-04-06T05:41:01.166Z,84.37
2019-04-06T05:43:29.698Z,90.53
2019-04-06T05:45:58.117Z,92.40
2019-04-06T05:48:26.742Z,94.20
2019-04-06T05:50:55.183Z,89.47
2019-04-06T05:53:23.678Z,93.03
2019-04-06T05:55:52.397Z,93.40
2019-04-06T05:58:21.034Z,93.97
2019-04-06T06:00:49.523Z,86.90
2019-04-06T06:03:18.109Z,87.63
2019-04-06T06:05:46.588Z,91.27
2019-04-06T06:08:15.113Z,93.07
2019-04-06T06:10:43.559Z,92.43
2019-04-06T06:13:12.118Z,106.07
2019-04-06T06:15:40.604Z,103.37
2019-04-06T06:18:09.092Z,103.93
2019-04-06T06:20:37.814Z,94.63
2019-04-06T06:23:06.338Z,100.93
2019-04-06T06:25:34.858Z,101.87
2019-04-06T06:28:13.868Z,106.60
2019-04-06T06:30:33.762Z,106.03
2019-04-06T06:33:02.267Z,106.87
2019-04-06T06:35:30.986Z,100.80
2019-04-06T06:37:59.492Z,110.83
2019-04-06T06:40:28.179Z,104.73
2019-04-06T06:42:56.693Z,107.80
2019-04-06T06:45:25.252Z,112.07
2019-04-06T06:47:53.742Z,106.87
2019-04-06T06:50:22.547Z,115.53
2019-04-06T06:52:51.051Z,116.17
2019-04-06T06:55:19.558Z,107.57
2019-04-06T06:57:48.063Z,89.53
2019-04-06T07:00:17.022Z,110.33
2019-04-06T07:02:45.513Z,120.50
2019-04-06T07:05:14.008Z,111.10
2019-04-06T07:07:42.757Z,108.57
2019-04-06T07:10:11.583Z,98.10
2019-04-06T07:12:40.041Z,92.03
2019-04-06T07:15:09.295Z,65.37
2019-04-06T07:17:38.098Z,95.37
2019-04-06T07:20:07.700Z,101.47
2019-04-06T07:22:36.765Z,134.87
2019-04-06T07:25:05.802Z,89.30
2019-04-06T07:27:34.318Z,99.73
2019-04-06T07:30:02.798Z,77.67
2019-04-06T07:32:31.391Z,100.97
2019-04-06T07:34:59.870Z,91.57
2019-04-06T07:37:28.365Z,93.70
2019-04-06T07:39:56.821Z,88.23
2019-04-06T07:42:25.325Z,101.23
2019-04-06T07:44:53.790Z,89.37
2019-04-06T07:47:22.563Z,99.10
2019-04-06T07:49:51.119Z,87.53
2019-04-06T07:52:19.698Z,100.03
2019-04-06T07:54:48.125Z,94.30
2019-04-06T07:57:16.616Z,94.63
2019-04-06T07:59:45.139Z,87.90
2019-04-06T08:02:13.641Z,92.33
2019-04-06T08:04:42.409Z,77.93
2019-04-06T08:07:11.197Z,97.93
2019-04-06T08:09:39.881Z,78.17
2019-04-06T08:12:08.381Z,83.63
2019-04-06T08:14:37.171Z,88.90
2019-04-06T08:17:05.663Z,71.30
2019-04-06T08:19:34.147Z,94.07
2019-04-06T08:22:02.639Z,88.77
2019-04-06T08:24:31.124Z,78.80
2019-04-06T08:26:59.601Z,86.47
2019-04-06T08:29:28.085Z,70.10
2019-04-06T08:31:56.704Z,84.67
2019-04-06T08:34:25.192Z,74.40
2019-04-06T08:36:53.683Z,84.23
2019-04-06T08:39:22.222Z,80.13
2019-04-06T08:41:51.224Z,67.50
2019-04-06T08:44:19.752Z,97.17
2019-04-06T08:46:48.582Z,71.30
2019-04-06T08:49:17.028Z,67.57
2019-04-06T08:51:45.512Z,82.50
2019-04-06T08:54:14.103Z,59.97
2019-04-06T08:56:42.654Z,88.80
2019-04-06T08:59:13.173Z,58.07
2019-04-06T09:01:41.717Z,76.70
2019-04-06T09:04:10.254Z,57.40
2019-04-06T09:06:38.759Z,57.30
2019-04-06T09:09:07.521Z,74.83
2019-04-06T09:11:36.018Z,54.80
2019-04-06T09:14:04.638Z,68.23
2019-04-06T09:16:33.234Z,71.77
2019-04-06T09:19:01.737Z,67.63
2019-04-06T09:21:30.230Z,67.40
2019-04-06T09:23:59.294Z,58.37
2019-04-06T09:26:27.786Z,57.97
2019-04-06T09:28:56.298Z,67.37
2019-04-06T09:31:24.795Z,65.77
2019-04-06T09:33:53.259Z,58.10
2019-04-06T09:36:22.081Z,52.83
2019-04-06T09:38:50.822Z,59.23
2019-04-06T09:41:19.581Z,71.87
2019-04-06T09:43:48.115Z,62.07
2019-04-06T09:46:26.956Z,61.50
2019-04-06T09:49:13.690Z,46.30
2019-04-06T09:51:59.674Z,55.90
2019-04-06T09:54:46.104Z,59.73
2019-04-06T09:57:21.947Z,48.73
2019-04-06T09:59:56.168Z,51.73
2019-04-06T10:02:43.714Z,60.17
2019-04-06T10:05:31.238Z,47.67
2019-04-06T10:08:34.207Z,49.87
2019-04-06T10:11:11.576Z,40.30
2019-04-06T10:14:17.512Z,54.67
2019-04-06T10:16:58.292Z,40.37
2019-04-06T10:19:44.441Z,43.27
2019-04-06T10:22:31.911Z,38.50
2019-04-06T10:25:28.736Z,40.93
2019-04-06T10:28:19.911Z,41.10
2019-04-06T10:31:06.291Z,47.83
2019-04-06T10:33:41.146Z,44.83
2019-04-06T10:36:15.640Z,49.03
2019-04-06T10:38:59.797Z,31.80
2019-04-06T10:41:53.377Z,46.90
2019-04-06T10:44:37.630Z,31.40
2019-04-06T10:47:30.936Z,35.80
2019-04-06T10:50:08.069Z,39.23
2019-04-06T10:52:58.407Z,34.87
2019-04-06T10:55:47.824Z,38.90
2019-04-06T10:58:28.933Z,34.90
2019-04-06T11:01:19.548Z,39.57
2019-04-06T11:03:56.480Z,32.33
2019-04-06T11:06:49.533Z,37.37
2019-04-06T11:09:37.252Z,42.23
2019-04-06T11:12:43.283Z,39.47
2019-04-06T11:15:21.644Z,41.30
2019-04-06T11:18:04.670Z,32.53
2019-04-06T11:20:46.681Z,42.37
2019-04-06T11:23:43.080Z,30.50
2019-04-06T11:26:36.610Z,29.87
2019-04-06T11:29:18.875Z,36.87
2019-04-06T11:32:03.731Z,29.63
2019-04-06T11:34:46.180Z,32.00
2019-04-06T11:37:34.878Z,32.27
2019-04-06T11:40:22.761Z,28.70
2019-04-06T11:43:07.004Z,36.57
2019-04-06T11:45:47.971Z,26.03
2019-04-06T11:48:33.035Z,26.10
2019-04-06T11:51:16.672Z,29.00
2019-04-06T11:54:07.236Z,25.63
2019-04-06T11:56:43.760Z,28.60
2019-04-06T11:59:22.967Z,27.43
2019-04-06T12:01:59.199Z,30.77
2019-04-06T12:04:59.321Z,32.43
2019-04-06T12:07:55.746Z,32.00
2019-04-06T12:10:43.114Z,33.03
2019-04-06T12:13:23.781Z,32.13
2019-04-06T12:16:10.270Z,26.33
2019-04-06T12:18:58.272Z,27.37
2019-04-06T12:21:49.115Z,22.30
2019-04-06T12:24:24.699Z,25.63
2019-04-06T12:27:06.686Z,23.37
2019-04-06T12:30:00.042Z,23.70
2019-04-06T12:32:50.859Z,31.83
2019-04-06T12:35:31.714Z,32.90
2019-04-06T12:38:17.823Z,32.40
2019-04-06T12:41:08.777Z,36.07
2019-04-06T12:43:59.134Z,29.83
2019-04-06T12:46:45.499Z,27.57
2019-04-06T12:49:39.793Z,27.47
2019-04-06T12:52:21.176Z,34.73
2019-04-06T12:55:07.517Z,32.50
2019-04-06T12:57:54.148Z,39.30
2019-04-06T13:04:47.753Z,35.67
2019-04-06T13:07:41.175Z,37.47
2019-04-06T13:10:31.528Z,28.67
2019-04-06T13:13:09.330Z,36.30
2019-04-06T13:15:55.345Z,27.67
2019-04-06T13:18:49.008Z,33.53
2019-04-06T13:21:51.668Z,32.33
2019-04-06T13:24:45.500Z,34.13
2019-04-06T13:27:23.881Z,29.00
2019-04-06T13:30:04.260Z,23.57
2019-04-06T13:32:49.235Z,26.63
2019-04-06T13:35:24.233Z,22.87
2019-04-06T13:38:07.242Z,28.10
2019-04-06T13:41:03.918Z,29.83
2019-04-06T13:44:00.610Z,34.50
2019-04-06T13:46:36.698Z,33.63
2019-04-06T13:49:11.430Z,32.33
2019-04-06T13:52:11.409Z,27.17
2019-04-06T13:55:02.090Z,25.27
2019-04-06T13:57:45.027Z,27.97
2019-04-06T14:00:32.370Z,23.50
2019-04-06T14:03:31.898Z,22.20
2019-04-06T14:06:21.667Z,18.40
2019-04-06T14:09:18.894Z,16.53
2019-04-06T14:11:53.779Z,16.23
2019-04-06T14:14:35.733Z,18.77
2019-04-06T14:17:32.641Z,24.00
2019-04-06T14:20:14.199Z,21.17
2019-04-06T14:23:13.854Z,14.97
2019-04-06T14:26:03.575Z,25.20
2019-04-06T14:28:50.697Z,21.63
2019-04-06T14:31:36.940Z,16.73
2019-04-06T14:34:18.548Z,19.60
2019-04-06T14:36:55.253Z,16.87
2019-04-06T14:39:44.026Z,15.90
2019-04-06T14:42:33.193Z,26.03
2019-04-06T14:45:20.096Z,27.17
2019-04-06T14:48:09.410Z,20.77
2019-04-06T14:50:54.011Z,24.00
2019-04-06T14:53:40.412Z,24.50
2019-04-06T14:56:21.700Z,20.30
2019-04-06T14:59:12.383Z,19.20
2019-04-06T15:01:59.299Z,18.70
2019-04-06T15:04:45.616Z,21.63
2019-04-06T15:07:24.889Z,19.63
2019-04-06T15:09:59.263Z,25.93
2019-04-06T15:12:37.295Z,23.10
2019-04-06T15:15:16.044Z,27.03
2019-04-06T15:17:56.149Z,28.37
2019-04-06T15:20:41.017Z,29.10
2019-04-06T15:23:26.791Z,29.87
2019-04-06T15:26:07.873Z,35.33
2019-04-06T15:28:50.690Z,32.37
2019-04-06T15:31:47.447Z,30.90
2019-04-06T15:34:41.731Z,41.97
2019-04-06T15:37:14.818Z,33.97
2019-04-06T15:39:56.711Z,34.53
2019-04-06T15:42:34.600Z,30.73
2019-04-06T15:45:40.301Z,29.93
2019-04-06T15:48:20.822Z,30.40
2019-04-06T15:51:12.087Z,33.60
2019-04-06T15:54:02.429Z,32.70
2019-04-06T15:56:52.955Z,31.63
2019-04-06T15:59:40.869Z,30.63
2019-04-06T16:02:31.593Z,25.37
2019-04-06T16:05:13.347Z,31.17
2019-04-06T16:07:49.316Z,35.27
2019-04-06T16:10:40.308Z,38.60
2019-04-06T16:13:15.815Z,44.17
2019-04-06T16:15:48.743Z,38.13
2019-04-06T16:18:36.533Z,32.63
2019-04-06T16:21:15.781Z,34.13
2019-04-06T16:24:02.231Z,39.60
2019-04-06T16:26:46.347Z,32.23
2019-04-06T16:29:45.838Z,38.13
2019-04-06T16:32:36.258Z,30.10
2019-04-06T16:35:13.762Z,34.53
2019-04-06T16:37:48.944Z,38.07
2019-04-06T16:40:29.582Z,28.97
2019-04-06T16:43:06.977Z,33.23
2019-04-06T16:45:47.031Z,33.50
2019-04-06T16:48:41.153Z,34.93
2019-04-06T16:51:18.679Z,35.20
2019-04-06T16:53:56.272Z,34.43
2019-04-06T16:56:30.707Z,32.73
2019-04-06T16:59:05.913Z,35.00
2019-04-06T17:01:39.466Z,37.20
2019-04-06T17:04:13.604Z,39.20
2019-04-06T17:07:01.717Z,35.33
2019-04-06T17:10:04.427Z,38.50
2019-04-06T17:13:04.146Z,27.80
2019-04-06T17:15:51.672Z,35.27
2019-04-06T17:18:37.827Z,31.57
2019-04-06T17:21:25.144Z,36.40
2019-04-06T17:24:15.691Z,43.53
2019-04-06T17:27:02.415Z,43.67
2019-04-06T17:29:41.617Z,34.37
2019-04-06T17:32:33.922Z,44.77
2019-04-06T17:35:09.866Z,29.23
2019-04-06T17:37:47.688Z,41.70
2019-04-06T17:40:27.953Z,39.60
2019-04-06T17:43:14.149Z,37.70
2019-04-06T17:46:08.291Z,43.13
2019-04-06T17:48:51.942Z,35.93
2019-04-06T17:51:44.023Z,46.10
2019-04-06T17:54:31.113Z,40.67
2019-04-06T17:57:17.883Z,40.30
2019-04-06T18:00:02.920Z,39.77
2019-04-06T18:02:50.896Z,40.50
2019-04-06T18:05:38.607Z,41.27
2019-04-06T18:08:41.537Z,42.07
2019-04-06T18:11:28.062Z,39.10
2019-04-06T18:13:56.778Z,35.03
2019-04-06T18:16:29.358Z,40.70
2019-04-06T18:18:57.925Z,34.93
2019-04-06T18:21:26.396Z,45.67
2019-04-06T18:23:55.271Z,42.27
2019-04-06T18:26:23.852Z,37.63
2019-04-06T18:28:52.749Z,46.17
2019-04-06T18:31:44.929Z,39.57
2019-04-06T18:34:13.713Z,45.80
2019-04-06T18:36:55.611Z,40.77
2019-04-06T18:39:24.336Z,50.27
2019-04-06T18:41:53.565Z,34.47
2019-04-06T18:44:23.062Z,43.27
2019-04-06T18:46:51.850Z,43.17
2019-04-06T18:49:20.390Z,41.77
2019-04-06T18:51:49.008Z,41.10
2019-04-06T18:54:17.505Z,44.83
2019-04-06T18:56:45.935Z,46.23
2019-04-06T18:59:15.154Z,41.87
2019-04-06T19:01:43.726Z,44.07
2019-04-06T19:04:12.302Z,48.37
2019-04-06T19:06:40.814Z,45.77
2019-04-06T19:09:20.663Z,45.83
2019-04-06T19:11:40.834Z,37.23
2019-04-06T19:14:11.117Z,40.23
2019-04-06T19:16:39.654Z,51.40
2019-04-06T19:19:08.131Z,51.53
2019-04-06T19:21:36.600Z,48.20
2019-04-06T19:24:05.515Z,53.30
2019-04-06T19:26:34.080Z,56.97
2019-04-06T19:29:03.112Z,47.10
2019-04-06T19:31:31.724Z,49.43
2019-04-06T19:34:00.581Z,46.87
2019-04-06T19:36:29.539Z,46.27
2019-04-06T19:38:58.120Z,52.20
2019-04-06T19:41:27.049Z,46.43
2019-04-06T19:43:55.666Z,53.87
2019-04-06T19:46:24.724Z,50.93
2019-04-06T19:48:53.295Z,54.03
2019-04-06T19:51:21.804Z,53.80
2019-04-06T19:53:50.306Z,49.17
2019-04-06T19:56:18.782Z,49.20
2019-04-06T19:58:54.999Z,49.97
2019-04-06T20:01:23.440Z,51.60
2019-04-06T20:03:52.688Z,54.73
2019-04-06T20:06:21.508Z,45.70
2019-04-06T20:08:50.007Z,44.83
2019-04-06T20:11:19.195Z,53.30
2019-04-06T20:13:47.968Z,54.40
2019-04-06T20:16:16.458Z,49.97
2019-04-06T20:18:45.052Z,50.77
2019-04-06T20:21:14.223Z,49.83
2019-04-06T20:23:42.965Z,48.97
2019-04-06T20:26:11.582Z,50.40
2019-04-06T20:28:40.090Z,47.83
2019-04-06T20:31:08.532Z,49.93
2019-04-06T20:33:47.339Z,55.33
2019-04-06T20:36:07.218Z,48.97
2019-04-06T20:38:35.958Z,53.87
2019-04-06T20:41:04.435Z,58.70
2019-04-06T20:43:34.391Z,51.70
2019-04-06T20:46:02.900Z,55.13
2019-04-06T20:48:31.415Z,55.33
2019-04-06T20:51:00.522Z,57.47
2019-04-06T20:53:29.043Z,60.17
2019-04-06T20:55:57.535Z,59.97
2019-04-06T20:58:26.046Z,58.87
2019-04-06T21:00:54.530Z,59.07
2019-04-06T21:03:23.280Z,58.27
2019-04-06T21:05:52.121Z,59.03
2019-04-06T21:08:20.874Z,55.07
2019-04-06T21:10:49.440Z,64.60
2019-04-06T21:13:17.918Z,57.00
2019-04-06T21:15:46.761Z,65.37
2019-04-06T21:18:15.261Z,60.73
2019-04-06T21:20:44.067Z,60.67
2019-04-06T21:23:12.911Z,71.43
2019-04-06T21:25:41.802Z,54.77
2019-04-06T21:28:10.349Z,56.00
2019-04-06T21:30:39.078Z,61.47
2019-04-06T21:33:07.953Z,63.90
2019-04-06T21:35:36.847Z,53.17
2019-04-06T21:38:05.555Z,66.47
2019-04-06T21:40:34.162Z,59.73
2019-04-06T21:43:03.084Z,58.77
2019-04-06T21:45:31.996Z,56.83
2019-04-06T21:48:00.545Z,60.00
2019-04-06T21:50:29.338Z,53.30
2019-04-06T21:52:57.851Z,61.03
2019-04-06T21:55:26.363Z,58.00
2019-04-06T21:57:55.334Z,52.90
2019-04-06T22:00:44.971Z,57.67
2019-04-06T22:03:13.934Z,54.50
2019-04-06T22:05:42.419Z,54.33
2019-04-06T22:08:10.885Z,62.07
2019-04-06T22:10:39.514Z,56.40
2019-04-06T22:13:08.387Z,63.60
2019-04-06T22:15:37.299Z,57.47
2019-04-06T22:18:06.209Z,59.97
2019-04-06T22:20:34.767Z,53.90
2019-04-06T22:23:03.827Z,58.40
2019-04-06T22:25:32.479Z,60.27
2019-04-06T22:28:01.011Z,56.17
2019-04-06T22:30:29.487Z,63.27
2019-04-06T22:32:57.999Z,60.43
2019-04-06T22:35:26.513Z,63.30
2019-04-06T22:37:56.187Z,58.50
2019-04-06T22:40:24.994Z,57.63
2019-04-06T22:42:54.122Z,55.43
2019-04-06T22:45:24.127Z,64.27
2019-04-06T22:47:53.096Z,60.60
2019-04-06T22:50:22.025Z,62.00
2019-04-06T22:52:50.570Z,60.83
2019-04-06T22:55:19.066Z,62.30
2019-04-06T22:57:47.781Z,59.17
2019-04-06T23:00:45.437Z,56.23
2019-04-06T23:03:31.953Z,61.40
2019-04-06T23:06:04.075Z,64.43
2019-04-06T23:08:32.640Z,55.00
2019-04-06T23:11:01.385Z,62.03
2019-04-06T23:13:30.254Z,61.27
2019-04-06T23:15:59.293Z,63.47
2019-04-06T23:18:27.795Z,59.17
2019-04-06T23:20:56.514Z,62.83
2019-04-06T23:23:25.065Z,61.80
2019-04-06T23:25:54.102Z,67.57
2019-04-06T23:28:22.677Z,63.43
2019-04-06T23:30:51.147Z,62.97
2019-04-06T23:33:20.067Z,63.53
2019-04-06T23:35:48.573Z,60.73
2019-04-06T23:38:17.063Z,62.70
2019-04-06T23:40:45.537Z,68.00
2019-04-06T23:43:14.007Z,69.47
2019-04-06T23:45:42.518Z,70.37
2019-04-06T23:48:11.027Z,71.20
2019-04-06T23:50:39.592Z,65.80
2019-04-06T23:53:08.064Z,69.57
2019-04-06T23:55:36.629Z,66.07
2019-04-06T23:58:05.041Z,64.70
